createdAt,value
2023-05-16T00:00:52.808Z,17.29
2023-05-16T00:03:20.589Z,17.30
2023-05-16T00:05:50.347Z,17.29
2023-05-16T00:08:17.636Z,17.30
2023-05-16T00:10:44.506Z,17.30
2023-05-16T00:13:13.444Z,17.29
2023-05-16T00:15:40.628Z,17.32
2023-05-16T00:18:08.414Z,17.33
2023-05-16T00:20:37.330Z,17.34
2023-05-16T00:23:04.256Z,17.36
2023-05-16T00:25:31.447Z,17.38
2023-05-16T00:27:58.406Z,17.39
2023-05-16T00:30:25.528Z,17.40
2023-05-16T00:32:55.503Z,17.42
2023-05-16T00:35:23.759Z,17.43
2023-05-16T00:37:50.768Z,17.44
2023-05-16T00:40:18.259Z,17.44
2023-05-16T00:42:48.128Z,17.45
2023-05-16T00:45:15.000Z,17.44
2023-05-16T00:47:41.941Z,17.44
2023-05-16T00:50:09.577Z,17.44
2023-05-16T00:52:37.473Z,17.43
2023-05-16T00:55:05.366Z,17.41
2023-05-16T00:57:33.056Z,17.40
2023-05-16T00:59:59.964Z,17.38
2023-05-16T01:02:28.592Z,17.36
2023-05-16T01:04:56.303Z,17.32
2023-05-16T01:07:23.383Z,17.27
2023-05-16T01:09:50.924Z,17.22
2023-05-16T01:12:21.238Z,17.17
2023-05-16T01:14:56.793Z,17.15
2023-05-16T01:17:38.925Z,17.15
2023-05-16T01:20:15.124Z,17.14
2023-05-16T01:23:13.250Z,17.12
2023-05-16T01:26:11.406Z,17.10
2023-05-16T01:28:39.601Z,17.09
2023-05-16T01:31:06.420Z,17.08
2023-05-16T01:33:33.630Z,17.08
2023-05-16T01:36:26.090Z,17.08
2023-05-16T01:39:11.933Z,17.09
2023-05-16T01:41:38.698Z,17.08
2023-05-16T01:44:10.213Z,17.07
2023-05-16T01:46:38.663Z,17.07
2023-05-16T01:49:35.306Z,17.05
2023-05-16T01:52:08.063Z,17.02
2023-05-16T01:54:36.874Z,17.00
2023-05-16T01:57:04.254Z,16.97
2023-05-16T01:59:31.878Z,16.93
2023-05-16T02:01:58.884Z,16.90
2023-05-16T02:04:25.892Z,16.87
2023-05-16T02:06:52.701Z,16.84
2023-05-16T02:09:19.646Z,16.82
2023-05-16T02:11:46.730Z,16.80
2023-05-16T02:14:13.701Z,16.79
2023-05-16T02:16:40.639Z,16.73
2023-05-16T02:19:07.439Z,16.69
2023-05-16T02:21:35.107Z,16.64
2023-05-16T02:24:01.895Z,16.61
2023-05-16T02:26:28.996Z,16.59
2023-05-16T02:28:55.832Z,16.57
2023-05-16T02:31:30.110Z,16.54
2023-05-16T02:33:58.169Z,16.53
2023-05-16T02:36:25.133Z,16.54
2023-05-16T02:38:52.326Z,16.56
2023-05-16T02:41:22.857Z,16.58
2023-05-16T02:43:49.682Z,16.62
2023-05-16T02:46:24.567Z,16.68
2023-05-16T02:48:51.602Z,16.72
2023-05-16T02:51:20.371Z,16.76
2023-05-16T02:53:47.315Z,16.87
2023-05-16T02:56:14.607Z,17.03
2023-05-16T02:58:41.857Z,17.10
2023-05-16T03:01:09.603Z,17.15
2023-05-16T03:03:37.250Z,17.19
2023-05-16T03:06:04.197Z,17.23
2023-05-16T03:08:33.321Z,17.26
2023-05-16T03:11:00.371Z,17.29
2023-05-16T03:13:30.509Z,17.33
2023-05-16T03:15:59.213Z,17.36
2023-05-16T03:18:26.202Z,17.37
2023-05-16T03:20:53.106Z,17.31
2023-05-16T03:23:20.710Z,17.32
2023-05-16T03:25:49.096Z,17.35
2023-05-16T03:28:18.098Z,17.40
2023-05-16T03:30:45.248Z,17.44
2023-05-16T03:33:12.207Z,17.49
2023-05-16T03:35:39.018Z,17.57
2023-05-16T03:38:05.995Z,17.64
2023-05-16T03:40:33.104Z,17.69
2023-05-16T03:43:00.037Z,17.76
2023-05-16T03:45:27.226Z,17.82
2023-05-16T03:47:54.344Z,17.89
2023-05-16T03:50:21.455Z,17.97
2023-05-16T03:52:48.513Z,18.01
2023-05-16T03:55:17.561Z,18.07
2023-05-16T03:57:44.684Z,18.15
2023-05-16T04:00:12.238Z,18.22
2023-05-16T04:02:43.479Z,18.30
2023-05-16T04:05:11.058Z,18.36
2023-05-16T04:07:40.482Z,18.41
2023-05-16T04:10:09.368Z,18.48
2023-05-16T04:12:36.493Z,18.55
2023-05-16T04:15:05.136Z,18.60
2023-05-16T04:17:33.254Z,18.66
2023-05-16T04:20:00.637Z,18.74
2023-05-16T04:22:27.470Z,18.80
2023-05-16T04:24:54.513Z,18.80
2023-05-16T04:27:21.361Z,18.84
2023-05-16T04:29:48.135Z,18.90
2023-05-16T04:32:17.066Z,18.95
2023-05-16T04:34:46.120Z,19.02
2023-05-16T04:37:13.040Z,19.16
2023-05-16T04:39:40.503Z,19.17
2023-05-16T04:42:10.179Z,19.20
2023-05-16T04:44:37.400Z,19.27
2023-05-16T04:47:04.413Z,19.34
2023-05-16T04:49:31.250Z,19.41
2023-05-16T04:51:58.641Z,19.49
2023-05-16T04:54:26.004Z,19.56
2023-05-16T04:56:52.772Z,19.62
2023-05-16T04:59:20.204Z,19.75
2023-05-16T05:01:47.086Z,19.89
2023-05-16T05:04:13.895Z,19.97
2023-05-16T05:06:40.778Z,20.04
2023-05-16T05:09:07.619Z,20.10
2023-05-16T05:11:35.136Z,20.16
2023-05-16T05:14:03.249Z,20.20
2023-05-16T05:16:30.583Z,20.24
2023-05-16T05:18:57.858Z,20.22
2023-05-16T05:21:24.947Z,20.12
2023-05-16T05:23:51.870Z,20.10
2023-05-16T05:26:18.671Z,20.08
2023-05-16T05:28:53.966Z,20.07
2023-05-16T05:31:24.276Z,20.07
2023-05-16T05:33:51.218Z,20.07
2023-05-16T05:36:17.965Z,20.07
2023-05-16T05:38:45.376Z,20.08
2023-05-16T05:41:12.465Z,20.09
2023-05-16T05:43:39.359Z,20.11
2023-05-16T05:46:06.855Z,20.12
2023-05-16T05:48:33.751Z,20.11
2023-05-16T05:51:00.623Z,20.08
2023-05-16T05:53:27.504Z,20.06
2023-05-16T05:55:54.289Z,20.02
2023-05-16T05:58:21.249Z,19.98
2023-05-16T06:00:48.344Z,19.96
2023-05-16T06:03:16.080Z,19.97
2023-05-16T06:05:43.430Z,19.96
2023-05-16T06:08:10.757Z,19.95
2023-05-16T06:10:37.727Z,19.92
2023-05-16T06:13:04.717Z,19.89
2023-05-16T06:15:31.621Z,19.89
2023-05-16T06:17:58.905Z,19.88
2023-05-16T06:20:26.035Z,19.89
2023-05-16T06:22:52.986Z,19.85
2023-05-16T06:25:20.086Z,19.80
2023-05-16T06:27:46.918Z,19.76
2023-05-16T06:30:13.873Z,19.71
2023-05-16T06:32:41.027Z,19.65
2023-05-16T06:35:09.192Z,19.60
2023-05-16T06:37:36.435Z,19.55
2023-05-16T06:40:04.624Z,19.49
2023-05-16T06:42:31.912Z,19.46
2023-05-16T06:44:59.532Z,19.43
2023-05-16T06:47:26.497Z,19.38
2023-05-16T06:49:53.368Z,19.31
2023-05-16T06:52:20.931Z,19.29
2023-05-16T06:54:47.781Z,19.26
2023-05-16T06:57:14.889Z,19.23
2023-05-16T06:59:42.655Z,19.18
2023-05-16T07:02:09.564Z,19.14
2023-05-16T07:04:37.498Z,19.10
2023-05-16T07:07:07.199Z,19.06
2023-05-16T07:09:34.741Z,19.03
2023-05-16T07:12:01.575Z,19.00
2023-05-16T07:14:28.883Z,19.00
2023-05-16T07:16:55.866Z,19.04
2023-05-16T07:19:28.377Z,19.09
2023-05-16T07:21:56.083Z,19.12
2023-05-16T07:24:23.197Z,19.17
2023-05-16T07:26:50.706Z,19.23
2023-05-16T07:29:18.147Z,19.27
2023-05-16T07:31:45.495Z,19.42
2023-05-16T07:34:12.536Z,19.54
2023-05-16T07:36:42.388Z,19.68
2023-05-16T07:39:09.845Z,19.82
2023-05-16T07:41:37.037Z,19.94
2023-05-16T07:44:03.953Z,20.08
2023-05-16T07:46:31.355Z,20.23
2023-05-16T07:48:58.235Z,20.32
2023-05-16T07:51:25.260Z,20.30
2023-05-16T07:53:52.130Z,20.26
2023-05-16T07:56:19.351Z,20.29
2023-05-16T07:58:48.400Z,20.28
2023-05-16T08:01:15.493Z,20.35
2023-05-16T08:03:42.498Z,20.41
2023-05-16T08:06:10.194Z,20.37
2023-05-16T08:08:37.701Z,20.30
2023-05-16T08:11:05.253Z,20.25
2023-05-16T08:13:35.593Z,20.23
2023-05-16T08:16:02.602Z,20.19
2023-05-16T08:18:30.385Z,20.14
2023-05-16T08:20:57.422Z,20.10
2023-05-16T08:23:24.421Z,20.04
2023-05-16T08:25:51.362Z,19.95
2023-05-16T08:28:22.035Z,19.84
2023-05-16T08:30:49.358Z,19.80
2023-05-16T08:33:16.702Z,19.76
2023-05-16T08:35:43.835Z,19.60
2023-05-16T08:38:10.902Z,19.34
2023-05-16T08:40:39.538Z,19.10
2023-05-16T08:43:06.772Z,18.96
2023-05-16T08:45:35.296Z,18.89
2023-05-16T08:48:03.339Z,18.88
2023-05-16T08:50:31.391Z,18.90
2023-05-16T08:53:06.848Z,18.93
2023-05-16T08:55:35.498Z,18.99
2023-05-16T08:58:03.181Z,19.08
2023-05-16T09:00:31.291Z,19.22
2023-05-16T09:02:58.295Z,19.41
2023-05-16T09:05:25.599Z,19.60
2023-05-16T09:07:53.455Z,19.81
2023-05-16T09:10:20.728Z,20.06
2023-05-16T09:12:47.680Z,20.32
2023-05-16T09:15:16.830Z,20.57
2023-05-16T09:17:45.922Z,20.79
2023-05-16T09:20:17.272Z,20.98
2023-05-16T09:22:52.251Z,21.19
2023-05-16T09:25:29.547Z,21.42
2023-05-16T09:27:58.973Z,21.60
2023-05-16T09:30:34.284Z,21.73
2023-05-16T09:33:01.968Z,21.81
2023-05-16T09:37:59.348Z,21.87
2023-05-16T09:40:26.643Z,21.88
2023-05-16T09:43:05.150Z,21.92
2023-05-16T09:45:33.657Z,21.98
2023-05-16T09:48:04.388Z,22.05
2023-05-16T09:50:36.128Z,22.12
2023-05-16T09:53:03.522Z,22.20
2023-05-16T09:55:30.888Z,22.26
2023-05-16T09:57:57.960Z,22.30
2023-05-16T10:00:32.903Z,22.37
2023-05-16T10:03:03.482Z,22.50
2023-05-16T10:05:32.370Z,22.46
2023-05-16T10:07:59.672Z,22.45
2023-05-16T10:10:26.662Z,22.48
2023-05-16T10:12:53.778Z,22.56
2023-05-16T10:15:21.635Z,22.66
2023-05-16T10:17:52.023Z,22.79
2023-05-16T10:20:18.953Z,22.96
2023-05-16T10:22:46.188Z,23.10
2023-05-16T10:25:29.729Z,23.27
2023-05-16T10:27:57.919Z,23.53
2023-05-16T10:30:25.046Z,23.72
2023-05-16T10:32:52.341Z,23.85
2023-05-16T10:35:20.740Z,23.90
2023-05-16T10:37:48.667Z,23.86
2023-05-16T10:40:16.365Z,23.90
2023-05-16T10:43:04.419Z,23.94
2023-05-16T10:45:32.267Z,23.91
2023-05-16T10:48:01.508Z,23.76
2023-05-16T10:50:41.693Z,23.58
2023-05-16T10:53:32.115Z,23.42
2023-05-16T10:55:59.190Z,23.26
2023-05-16T10:58:38.580Z,23.10
2023-05-16T11:01:29.606Z,22.98
2023-05-16T11:03:57.177Z,22.90
2023-05-16T11:06:27.243Z,22.85
2023-05-16T11:09:07.298Z,22.86
2023-05-16T11:12:09.013Z,22.86
2023-05-16T11:14:38.572Z,22.84
2023-05-16T11:17:20.265Z,22.86
2023-05-16T11:19:59.284Z,22.90
2023-05-16T11:22:28.596Z,22.96
2023-05-16T11:25:08.990Z,23.03
2023-05-16T11:27:45.356Z,23.06
2023-05-16T11:30:13.884Z,23.05
2023-05-16T11:32:43.399Z,23.04
2023-05-16T11:35:25.871Z,23.06
2023-05-16T11:37:53.236Z,23.13
2023-05-16T11:40:20.169Z,23.14
2023-05-16T11:42:47.890Z,23.11
2023-05-16T11:45:16.904Z,23.13
2023-05-16T11:47:44.827Z,23.19
2023-05-16T11:50:19.130Z,23.24
2023-05-16T11:52:56.659Z,23.32
2023-05-16T11:55:40.377Z,23.39
2023-05-16T11:58:09.727Z,23.47
2023-05-16T12:00:37.375Z,23.52
2023-05-16T12:03:05.465Z,23.58
2023-05-16T12:05:34.278Z,23.61
2023-05-16T12:08:02.229Z,23.62
2023-05-16T12:10:31.043Z,23.68
2023-05-16T12:12:58.431Z,23.73
2023-05-16T12:15:25.700Z,23.80
2023-05-16T12:17:54.022Z,23.84
2023-05-16T12:20:21.053Z,23.83
2023-05-16T12:22:48.070Z,23.75
2023-05-16T12:25:34.434Z,23.64
2023-05-16T12:28:02.609Z,23.54
2023-05-16T12:30:31.898Z,23.47
2023-05-16T12:33:00.442Z,23.39
2023-05-16T12:35:32.046Z,23.33
2023-05-16T12:38:00.105Z,23.13
2023-05-16T12:40:30.940Z,22.95
2023-05-16T12:42:58.430Z,22.82
2023-05-16T12:45:27.437Z,22.72
2023-05-16T12:47:54.608Z,22.62
2023-05-16T12:50:22.461Z,22.55
2023-05-16T12:52:54.703Z,22.51
2023-05-16T12:55:22.056Z,22.44
2023-05-16T12:57:49.345Z,22.38
2023-05-16T13:00:21.441Z,22.34
2023-05-16T13:02:49.074Z,22.31
2023-05-16T13:05:17.536Z,22.28
2023-05-16T13:07:44.655Z,22.26
2023-05-16T13:10:13.517Z,22.24
2023-05-16T13:12:42.548Z,22.21
2023-05-16T13:15:11.450Z,22.20
2023-05-16T13:17:38.906Z,22.20
2023-05-16T13:20:09.828Z,22.22
2023-05-16T13:22:37.179Z,22.09
2023-05-16T13:25:05.657Z,22.05
2023-05-16T13:27:32.872Z,22.06
2023-05-16T13:29:59.920Z,22.14
2023-05-16T13:32:27.242Z,22.27
2023-05-16T13:34:54.973Z,22.43
2023-05-16T13:37:23.977Z,22.55
2023-05-16T13:39:53.294Z,22.68
2023-05-16T13:42:20.867Z,22.77
2023-05-16T13:44:48.005Z,22.80
2023-05-16T13:47:15.612Z,22.82
2023-05-16T13:49:42.620Z,22.83
2023-05-16T13:52:09.698Z,22.84
2023-05-16T13:54:36.917Z,22.86
2023-05-16T13:57:04.322Z,22.85
2023-05-16T14:00:03.450Z,22.88
2023-05-16T14:02:19.948Z,22.92
2023-05-16T14:04:49.057Z,22.92
2023-05-16T14:07:17.902Z,22.93
2023-05-16T14:09:45.529Z,22.93
2023-05-16T14:12:12.503Z,22.86
2023-05-16T14:14:39.637Z,22.83
2023-05-16T14:17:07.296Z,22.79
2023-05-16T14:19:34.448Z,22.76
2023-05-16T14:22:01.478Z,22.78
2023-05-16T14:24:28.559Z,22.78
2023-05-16T14:26:55.896Z,22.80
2023-05-16T14:29:23.884Z,22.79
2023-05-16T14:31:50.967Z,22.75
2023-05-16T14:34:19.685Z,22.69
2023-05-16T14:36:46.715Z,22.63
2023-05-16T14:39:13.761Z,22.56
2023-05-16T14:41:41.891Z,22.51
2023-05-16T14:44:09.340Z,22.44
2023-05-16T14:46:36.455Z,22.38
2023-05-16T14:49:04.996Z,22.35
2023-05-16T14:51:32.102Z,22.32
2023-05-16T14:53:59.200Z,22.20
2023-05-16T14:56:27.758Z,22.15
2023-05-16T14:58:54.732Z,22.09
2023-05-16T15:01:22.216Z,22.06
2023-05-16T15:03:55.415Z,22.03
2023-05-16T15:06:24.133Z,22.01
2023-05-16T15:08:51.629Z,21.97
2023-05-16T15:11:18.961Z,21.98
2023-05-16T15:13:46.304Z,22.01
2023-05-16T15:16:13.366Z,22.03
2023-05-16T15:18:41.259Z,22.05
2023-05-16T15:21:08.627Z,22.07
2023-05-16T15:23:36.207Z,22.09
2023-05-16T15:26:03.666Z,22.10
2023-05-16T15:28:30.829Z,22.11
2023-05-16T15:30:57.879Z,22.16
2023-05-16T15:33:25.200Z,22.19
2023-05-16T15:35:52.587Z,22.20
2023-05-16T15:38:22.869Z,22.18
2023-05-16T15:40:55.217Z,22.17
2023-05-16T15:43:25.433Z,22.20
2023-05-16T15:45:52.452Z,22.20
2023-05-16T15:48:19.773Z,22.19
2023-05-16T15:50:46.761Z,22.16
2023-05-16T15:53:13.671Z,22.16
2023-05-16T15:55:40.706Z,22.25
2023-05-16T15:58:07.923Z,22.24
2023-05-16T16:00:38.988Z,22.33
2023-05-16T16:03:06.687Z,22.24
2023-05-16T16:05:34.335Z,22.21
2023-05-16T16:08:01.694Z,22.17
2023-05-16T16:10:31.017Z,22.13
2023-05-16T16:13:02.078Z,22.09
2023-05-16T16:15:32.812Z,22.07
2023-05-16T16:18:00.712Z,22.08
2023-05-16T16:20:27.834Z,22.10
2023-05-16T16:23:04.911Z,22.06
2023-05-16T16:25:32.195Z,21.99
2023-05-16T16:27:59.608Z,21.92
2023-05-16T16:30:27.451Z,21.85
2023-05-16T16:32:54.524Z,21.83
2023-05-16T16:35:25.227Z,21.78
2023-05-16T16:38:05.706Z,21.75
2023-05-16T16:40:34.363Z,21.71
2023-05-16T16:43:01.394Z,21.65
2023-05-16T16:45:29.485Z,21.62
2023-05-16T16:47:57.994Z,21.59
2023-05-16T16:50:25.198Z,21.56
2023-05-16T16:52:53.460Z,21.55
2023-05-16T16:55:20.784Z,21.56
2023-05-16T16:57:47.739Z,21.51
2023-05-16T17:00:15.028Z,21.40
2023-05-16T17:02:42.265Z,21.29
2023-05-16T17:05:09.627Z,21.22
2023-05-16T17:07:37.219Z,21.14
2023-05-16T17:10:04.954Z,21.06
2023-05-16T17:12:34.422Z,20.98
2023-05-16T17:15:02.031Z,20.97
2023-05-16T17:17:29.570Z,20.93
2023-05-16T17:19:56.551Z,20.95
2023-05-16T17:22:23.472Z,20.85
2023-05-16T17:24:51.701Z,20.73
2023-05-16T17:27:18.951Z,20.68
2023-05-16T17:29:45.983Z,20.65
2023-05-16T17:32:12.971Z,20.63
2023-05-16T17:34:42.475Z,20.55
2023-05-16T17:37:10.177Z,20.48
2023-05-16T17:39:39.856Z,20.40
2023-05-16T17:42:08.938Z,20.35
2023-05-16T17:44:36.330Z,20.31
2023-05-16T17:47:05.066Z,20.28
2023-05-16T17:49:32.340Z,20.24
2023-05-16T17:52:00.261Z,20.21
2023-05-16T17:54:30.598Z,20.16
2023-05-16T17:56:57.862Z,20.22
2023-05-16T17:59:26.935Z,20.19
2023-05-16T18:01:55.616Z,20.01
2023-05-16T18:04:23.532Z,19.91
2023-05-16T18:06:54.013Z,19.83
2023-05-16T18:09:21.466Z,19.76
2023-05-16T18:11:49.976Z,19.70
2023-05-16T18:14:17.036Z,19.60
2023-05-16T18:16:44.071Z,19.53
2023-05-16T18:19:13.894Z,19.56
2023-05-16T18:21:44.558Z,19.54
2023-05-16T18:24:15.415Z,19.40
2023-05-16T18:26:43.863Z,19.35
2023-05-16T18:29:10.859Z,19.31
2023-05-16T18:31:40.714Z,19.38
2023-05-16T18:34:11.613Z,19.38
2023-05-16T18:36:38.682Z,19.34
2023-05-16T18:39:06.648Z,19.27
2023-05-16T18:41:34.135Z,19.14
2023-05-16T18:44:01.164Z,19.00
2023-05-16T18:46:28.818Z,18.93
2023-05-16T18:48:57.401Z,18.87
2023-05-16T18:51:24.681Z,18.82
2023-05-16T18:53:52.036Z,18.77
2023-05-16T18:56:18.972Z,18.73
2023-05-16T18:58:46.878Z,18.67
2023-05-16T19:01:14.001Z,18.62
2023-05-16T19:03:41.118Z,18.57
2023-05-16T19:06:11.489Z,18.52
2023-05-16T19:08:47.454Z,18.51
2023-05-16T19:11:18.408Z,18.60
2023-05-16T19:13:45.861Z,18.57
2023-05-16T19:16:12.962Z,18.51
2023-05-16T19:18:40.853Z,18.45
2023-05-16T19:21:09.724Z,18.40
2023-05-16T19:23:41.181Z,18.36
2023-05-16T19:26:08.284Z,18.32
2023-05-16T19:28:37.423Z,18.29
2023-05-16T19:31:09.797Z,18.27
2023-05-16T19:33:37.683Z,18.24
2023-05-16T19:36:05.470Z,18.22
2023-05-16T19:38:32.576Z,18.19
2023-05-16T19:41:01.866Z,18.16
2023-05-16T19:43:29.260Z,18.04
2023-05-16T19:45:56.173Z,17.99
2023-05-16T19:48:23.917Z,17.97
2023-05-16T19:50:51.530Z,18.01
2023-05-16T19:53:18.499Z,18.01
2023-05-16T19:55:49.092Z,18.00
2023-05-16T19:58:16.638Z,18.00
2023-05-16T20:00:43.703Z,17.98
2023-05-16T20:03:10.891Z,17.96
2023-05-16T20:05:39.146Z,17.93
2023-05-16T20:08:06.601Z,17.91
2023-05-16T20:10:34.824Z,17.87
2023-05-16T20:13:05.180Z,17.83
2023-05-16T20:15:32.444Z,17.81
2023-05-16T20:17:59.479Z,17.80
2023-05-16T20:20:26.672Z,17.79
2023-05-16T20:22:53.603Z,17.79
2023-05-16T20:25:20.654Z,17.80
2023-05-16T20:27:47.849Z,17.81
2023-05-16T20:30:14.886Z,17.81
2023-05-16T20:32:43.165Z,17.80
2023-05-16T20:35:12.062Z,17.79
2023-05-16T20:37:40.839Z,17.77
2023-05-16T20:40:08.744Z,17.74
2023-05-16T20:42:36.065Z,17.70
2023-05-16T20:45:03.795Z,17.58
2023-05-16T20:47:31.362Z,17.53
2023-05-16T20:49:58.750Z,17.53
2023-05-16T20:52:27.334Z,17.58
2023-05-16T20:54:57.897Z,17.50
2023-05-16T20:57:24.986Z,17.48
2023-05-16T20:59:52.007Z,17.47
2023-05-16T21:02:19.004Z,17.46
2023-05-16T21:04:46.026Z,17.45
2023-05-16T21:07:13.093Z,17.43
2023-05-16T21:09:41.488Z,17.41
2023-05-16T21:12:08.718Z,17.39
2023-05-16T21:14:36.173Z,17.36
2023-05-16T21:17:03.265Z,17.32
2023-05-16T21:19:36.820Z,17.28
2023-05-16T21:22:06.484Z,17.24
2023-05-16T21:24:35.256Z,17.21
2023-05-16T21:27:04.537Z,17.17
2023-05-16T21:29:33.024Z,17.19
2023-05-16T21:32:03.083Z,17.17
2023-05-16T21:34:30.099Z,17.15
2023-05-16T21:36:58.151Z,17.13
2023-05-16T21:39:25.288Z,17.11
2023-05-16T21:41:52.244Z,17.08
2023-05-16T21:44:20.242Z,17.05
2023-05-16T21:46:47.311Z,17.02
2023-05-16T21:49:14.331Z,16.99
2023-05-16T21:51:41.454Z,17.00
2023-05-16T21:54:08.413Z,16.97
2023-05-16T21:56:36.200Z,16.92
2023-05-16T21:59:03.060Z,16.89
2023-05-16T22:01:30.003Z,16.87
2023-05-16T22:03:57.774Z,16.86
2023-05-16T22:06:24.930Z,16.92
2023-05-16T22:08:52.984Z,16.95
2023-05-16T22:11:19.826Z,16.93
2023-05-16T22:13:47.357Z,16.91
2023-05-16T22:16:14.884Z,16.90
2023-05-16T22:18:44.740Z,16.86
2023-05-16T22:21:11.859Z,16.84
2023-05-16T22:23:39.113Z,16.73
2023-05-16T22:26:06.152Z,16.70
2023-05-16T22:28:33.144Z,16.77
2023-05-16T22:31:00.518Z,16.80
2023-05-16T22:33:27.566Z,16.82
2023-05-16T22:35:54.778Z,16.76
2023-05-16T22:38:21.642Z,16.75
2023-05-16T22:40:48.636Z,16.78
2023-05-16T22:43:16.331Z,16.82
2023-05-16T22:45:43.169Z,16.86
2023-05-16T22:48:10.220Z,16.87
2023-05-16T22:50:37.889Z,16.89
2023-05-16T22:53:04.828Z,16.94
2023-05-16T22:55:33.505Z,16.99
2023-05-16T22:58:04.357Z,17.05
2023-05-16T23:00:33.039Z,17.09
2023-05-16T23:02:59.944Z,17.14
2023-05-16T23:05:27.074Z,17.17
2023-05-16T23:07:54.304Z,17.32
2023-05-16T23:10:21.140Z,17.39
2023-05-16T23:12:48.270Z,17.43
2023-05-16T23:15:15.139Z,17.46
2023-05-16T23:17:42.090Z,17.50
2023-05-16T23:20:11.374Z,17.54
2023-05-16T23:22:38.670Z,17.56
2023-05-16T23:25:06.486Z,17.59
2023-05-16T23:27:34.083Z,17.64
2023-05-16T23:30:01.044Z,17.67
2023-05-16T23:32:29.288Z,17.70
2023-05-16T23:34:56.193Z,17.69
2023-05-16T23:37:24.613Z,17.78
2023-05-16T23:39:51.469Z,17.82
2023-05-16T23:42:18.304Z,17.79
2023-05-16T23:44:45.850Z,17.76
2023-05-16T23:47:13.088Z,17.77
2023-05-16T23:49:40.356Z,17.79
2023-05-16T23:52:07.336Z,17.82
2023-05-16T23:54:34.245Z,17.84
2023-05-16T23:57:01.161Z,17.86
2023-05-16T23:59:28.062Z,17.90
